Data for 08/30/2013

Time Sea-Level Adjusted Pressure Absolute Pressure Temperature Relative Humidity Dew Point Precipitation   
(mb) (inHg) (mb) (inHg) (C) (F) (%) (C) (F) (mm) (in)
00:05 1023 30.21 853 25.19 17.1 62.7 61 9.6 49.3 0 0
00:10 1023 30.21 853 25.19 17.3 63.1 61 9.8 49.7 0 0
00:15 1023 30.21 853 25.19 17.2 62.9 62 9.9 49.8 0 0
00:20 1023 30.21 853 25.19 17.5 63.5 60 9.8 49.7 0 0
00:25 1023 30.21 853 25.19 17.9 64.1 60 10 49.9 0 0
00:30 1023 30.21 853 25.19 17.9 64.2 59 9.8 49.6 0 0
00:35 1023 30.21 853 25.19 18 64.3 59 9.9 49.9 0 0
00:40 1024 30.24 853 25.19 17.9 64.2 59 9.8 49.7 0 0
00:45 1024 30.24 853 25.19 17.7 63.9 60 10.1 50.1 0 0
00:50 1023 30.21 853 25.19 17.9 64.1 61 10.3 50.5 0 0
00:55 1024 30.24 853 25.19 17.9 64.2 60 10.2 50.4 0 0
01:00 1024 30.24 853 25.19 17.7 63.9 64 10.9 51.6 0 0
01:05 1024 30.24 853 25.19 16.6 62 68 10.7 51.2 0 0
01:10 1024 30.24 853 25.19 16.2 61.2 69 10.7 51.2 0 0
01:15 1024 30.24 853 25.19 16.2 61.2 69 10.6 51 0 0
01:20 1024 30.24 853 25.19 16.2 61.2 69 10.5 51 0 0
01:25 1024 30.24 853 25.19 16.2 61.2 68 10.5 50.9 0 0
01:30 1024 30.24 853 25.19 16.4 61.5 67 10.4 50.7 0 0
01:35 1024 30.24 853 25.19 16.3 61.3 68 10.4 50.8 0 0
01:40 1024 30.24 853 25.19 16 60.8 68 10.2 50.4 0 0
01:45 1024 30.24 853 25.19 15.2 59.3 76 10.9 51.7 0 0
01:50 1024 30.24 853 25.19 14.7 58.5 75 10.3 50.6 0 0
01:55 1024 30.24 853 25.19 15.2 59.4 73 10.5 50.9 0 0
02:00 1024 30.24 853 25.19 15.4 59.7 72 10.4 50.7 0 0
02:05 1024 30.24 853 25.19 15.7 60.2 70 10.3 50.5 0 0
02:10 1024 30.24 853 25.19 15.4 59.8 73 10.7 51.2 0 0
02:15 1024 30.24 853 25.19 14.9 58.7 75 10.5 50.8 0 0
02:20 1024 30.24 853 25.19 14.4 57.9 77 10.4 50.6 0 0
02:25 1024 30.24 853 25.19 14.3 57.7 77 10.2 50.4 0 0
02:30 1024 30.24 853 25.19 14.2 57.6 77 10.4 50.6 0 0
02:35 1024 30.24 854 25.22 13.1 55.5 80 9.7 49.4 0 0
02:40 1024 30.24 854 25.22 12.3 54.2 87 10.2 50.4 0 0
02:45 1024 30.24 854 25.22 13.5 56.2 76 9.3 48.8 0 0
02:50 1024 30.24 854 25.22 12.9 55.2 82 10 50 0 0
02:55 1024 30.24 854 25.22 12.3 54.1 85 9.8 49.6 0 0
03:00 1024 30.24 854 25.22 11.9 53.4 84 9.4 48.9 0 0
03:05 1024 30.24 854 25.22 11.7 53.1 86 9.5 49.1 0 0
03:10 1024 30.24 854 25.22 11.8 53.2 85 9.3 48.8 0 0
03:15 1024 30.24 854 25.22 11.8 53.2 85 9.4 48.9 0 0
03:20 1024 30.24 854 25.22 11.5 52.8 87 9.5 49 0 0
03:25 1024 30.24 854 25.22 11.3 52.4 86 9.1 48.5 0 0
03:30 1024 30.24 854 25.22 11.1 51.9 88 9.1 48.4 0 0
03:35 1024 30.24 854 25.22 10.8 51.5 88 8.9 48.1 0 0
03:40 1024 30.24 854 25.22 11 51.7 87 8.9 48 0 0
03:45 1024 30.24 853 25.19 10.8 51.4 89 9 48.1 0 0
03:50 1024 30.24 853 25.19 11 51.9 87 8.9 48 0 0
03:55 1024 30.24 853 25.19 10.9 51.6 88 9 48.2 0 0
04:00 1024 30.24 853 25.19 11 51.8 86 8.8 47.8 0 0
04:05 1024 30.24 853 25.19 11.2 52.1 85 8.8 47.8 0 0
04:10 1024 30.24 853 25.19 11.2 52.2 85 8.7 47.7 0 0
04:15 1024 30.24 853 25.19 11.4 52.5 82 8.5 47.3 0 0
04:20 1024 30.24 853 25.19 11.4 52.4 83 8.7 47.6 0 0
04:25 1024 30.24 853 25.19 10.9 51.7 84 8.4 47.1 0 0
04:30 1024 30.24 853 25.19 10.8 51.5 85 8.4 47.2 0 0
04:35 1024 30.24 853 25.19 10.7 51.2 86 8.5 47.3 0 0
04:40 1024 30.24 853 25.19 10.4 50.7 88 8.4 47.2 0 0
04:45 1024 30.24 853 25.19 10.3 50.6 89 8.6 47.4 0 0
04:50 1024 30.24 853 25.19 10.2 50.4 89 8.5 47.3 0 0
04:55 1024 30.24 853 25.19 10.3 50.6 88 8.5 47.3 0 0
05:00 1024 30.24 853 25.19 10.5 50.9 87 8.4 47.2 0 0
05:05 1024 30.24 853 25.19 10.4 50.7 88 8.5 47.3 0 0
05:10 1024 30.24 853 25.19 10.1 50.2 90 8.5 47.3 0 0
05:15 1024 30.24 853 25.19 10.2 50.3 89 8.4 47.2 0 0
05:20 1024 30.24 853 25.19 10.1 50.3 89 8.4 47.1 0 0
05:25 1024 30.24 853 25.19 10.3 50.5 87 8.2 46.8 0 0
05:30 1024 30.24 853 25.19 10.7 51.2 85 8.2 46.8 0 0
05:35 1024 30.24 853 25.19 11.2 52.2 84 8.7 47.7 0 0
05:40 1024 30.24 853 25.19 11.1 52 85 8.7 47.7 0 0
05:45 1024 30.24 853 25.19 10.9 51.5 85 8.5 47.4 0 0
05:50 1024 30.24 853 25.19 10.7 51.2 86 8.4 47.2 0 0
05:55 1024 30.24 853 25.19 10.3 50.5 88 8.4 47.2 0 0
06:00 1024 30.24 853 25.19 10.6 51.1 84 8.1 46.6 0 0
06:05 1024 30.24 853 25.19 10.7 51.3 86 8.5 47.3 0 0
06:10 1024 30.24 853 25.19 10.6 51 86 8.3 46.9 0 0
06:15 1024 30.24 853 25.19 10.4 50.7 86 8.2 46.8 0 0
06:20 1024 30.24 853 25.19 10.4 50.8 85 8.1 46.5 0 0
06:25 1024 30.24 853 25.19 10.5 50.9 85 8.1 46.5 0 0
06:30 1024 30.24 853 25.19 10.9 51.6 81 7.8 46.1 0 0
06:35 1024 30.24 853 25.19 11.2 52.2 81 8 46.5 0 0
06:40 1024 30.24 853 25.19 11.1 52 82 8.2 46.7 0 0
06:45 1024 30.24 853 25.19 11.2 52.1 82 8.2 46.7 0 0
06:50 1024 30.24 853 25.19 10.8 51.5 83 8 46.5 0 0
06:55 1024 30.24 853 25.19 10.6 51.1 84 8 46.4 0 0
07:00 1024 30.24 853 25.19 10.5 50.8 85 8.1 46.5 0 0
07:05 1024 30.24 853 25.19 10.4 50.7 85 8 46.4 0 0
07:10 1024 30.24 853 25.19 10.5 50.9 85 8.2 46.8 0 0
07:15 1024 30.24 853 25.19 11 51.7 82 8 46.3 0 0
07:20 1024 30.24 853 25.19 11.3 52.3 82 8.3 46.9 0 0
07:25 1024 30.24 853 25.19 11.6 52.9 80 8.4 47 0 0
07:30 1024 30.24 853 25.19 11.8 53.3 81 8.7 47.7 0 0
07:35 1024 30.24 853 25.19 11.9 53.3 81 8.7 47.7 0 0
07:40 1024 30.24 853 25.19 12.1 53.7 80 8.7 47.6 0 0
07:45 1024 30.24 853 25.19 12.4 54.4 77 8.5 47.4 0 0
07:50 1024 30.24 853 25.19 12.9 55.2 79 9.4 48.8 0 0
07:55 1024 30.24 853 25.19 13.3 55.9 76 9.2 48.5 0 0
08:00 1024 30.24 853 25.19 13.7 56.7 76 9.6 49.2 0 0
08:05 1024 30.24 853 25.19 14 57.2 73 9.3 48.8 0 0
08:10 1024 30.24 853 25.19 14.3 57.7 71 9.1 48.3 0 0
08:15 1024 30.24 853 25.19 14.7 58.5 69 9.2 48.5 0 0
08:20 1024 30.24 853 25.19 15.3 59.5 67 9.2 48.6 0 0
08:25 1024 30.24 853 25.19 15.9 60.6 64 9.2 48.6 0 0
08:30 1024 30.24 853 25.19 16.3 61.3 65 9.8 49.7 0 0
08:35 1024 30.24 853 25.19 16.5 61.8 66 10.3 50.5 0 0
08:40 1024 30.24 853 25.19 17 62.7 63 10.1 50.2 0 0
08:45 1024 30.24 853 25.19 17.6 63.6 62 10.3 50.5 0 0
08:50 1024 30.24 853 25.19 18 64.3 62 10.6 51 0 0
08:55 1024 30.24 853 25.19 18.4 65.1 56 9.5 49 0 0
09:00 1024 30.24 853 25.19 19 66.1 52 9 48.2 0 0
09:05 1024 30.24 853 25.19 19.8 67.6 51 9.4 48.9 0 0
09:10 1024 30.24 853 25.19 20.3 68.5 49 9.4 48.8 0 0
09:15 1024 30.24 853 25.19 20.4 68.8 50 9.8 49.6 0 0
09:20 1024 30.24 853 25.19 20.1 68.2 56 11.3 52.3 0 0
09:25 1024 30.24 853 25.19 19.6 67.3 51 9.4 48.8 0 0
09:30 1024 30.24 853 25.19 19.6 67.2 54 10 50.1 0 0
09:35 1024 30.24 853 25.19 19.8 67.7 55 10.7 51.3 0 0
09:40 1024 30.24 853 25.19 20.1 68.1 52 10.2 50.3 0 0
09:45 1024 30.24 853 25.19 20 68 54 10.5 50.9 0 0
09:50 1024 30.24 853 25.19 19.9 67.8 55 10.7 51.3 0 0
09:55 1024 30.24 853 25.19 20 68 53 10.2 50.4 0 0
10:00 1024 30.24 853 25.19 20.3 68.6 55 11.2 52.1 0 0
10:05 1024 30.24 853 25.19 20.2 68.4 54 10.8 51.4 0 0
10:10 1024 30.24 853 25.19 20.4 68.6 55 11.2 52.1 0 0
10:15 1024 30.24 853 25.19 20.7 69.2 52 10.6 51.1 0 0
10:20 1024 30.24 853 25.19 20.6 69.1 54 11.2 52.1 0 0
10:25 1024 30.24 853 25.19 20.7 69.2 55 11.3 52.4 0 0
10:30 1024 30.24 853 25.19 20.9 69.6 54 11.3 52.4 0 0
10:35 1024 30.24 853 25.19 21.3 70.3 50 10.6 51 0 0
10:40 1024 30.24 853 25.19 21.3 70.4 50 10.7 51.3 0 0
10:45 1024 30.24 853 25.19 21.5 70.8 51 11.2 52.2 0 0
10:50 1024 30.24 853 25.19 21.9 71.4 52 11.7 53.1 0 0
10:55 1024 30.24 853 25.19 22.2 71.9 50 11.4 52.6 0 0
11:00 1024 30.24 853 25.19 22.4 72.4 49 11.3 52.3 0 0
11:05 1024 30.24 853 25.19 22.8 73 53 12.8 55 0 0
11:10 1024 30.24 853 25.19 22.8 73 49 11.6 53 0 0
11:15 1024 30.24 853 25.19 22.9 73.2 49 11.6 52.9 0 0
11:20 1024 30.24 853 25.19 23 73.3 49 11.9 53.5 0 0
11:25 1024 30.24 853 25.19 23.3 73.9 48 11.8 53.3 0 0
11:30 1024 30.24 853 25.19 23.3 73.9 49 12.3 54.1 0 0
11:35 1024 30.24 853 25.19 23.2 73.7 49 12 53.5 0 0
11:40 1024 30.24 853 25.19 23.1 73.6 45 10.8 51.4 0 0
11:45 1024 30.24 853 25.19 23.4 74 45 10.8 51.5 0 0
11:50 1024 30.24 853 25.19 23.3 74 44 10.6 51.1 0 0
11:55 1024 30.24 853 25.19 23.7 74.6 42 10.2 50.4 0 0
12:00 1024 30.24 853 25.19 24.1 75.4 48 12.7 54.9 0 0
12:05 1024 30.24 853 25.19 24.3 75.8 42 10.9 51.6 0 0
12:10 1024 30.24 853 25.19 24.3 75.7 43 11.1 51.9 0 0
12:15 1024 30.24 853 25.19 24.4 75.8 41 10.5 50.9 0 0
12:20 1023 30.21 853 25.19 24.5 76 45 11.9 53.5 0 0
12:25 1023 30.21 853 25.19 24.5 76.2 41 10.7 51.3 0 0
12:30 1023 30.21 853 25.19 24.7 76.4 44 11.7 53 0 0
12:35 1023 30.21 852 25.16 25 76.9 43 11.8 53.2 0 0
12:40 1023 30.21 852 25.16 25.3 77.6 37 9.9 49.8 0 0
12:45 1023 30.21 852 25.16 25.5 77.9 35 9.1 48.4 0 0
12:50 1023 30.21 852 25.16 25.6 78.1 37 10.1 50.2 0 0
12:55 1023 30.21 852 25.16 26 78.8 34 9.4 48.9 0 0
13:00 1023 30.21 852 25.16 26.3 79.3 30 7.7 45.9 0 0
13:05 1023 30.21 852 25.16 26.5 79.8 31 8.4 47.1 0 0
13:10 1023 30.21 852 25.16 26.6 79.9 32 8.9 48.1 0 0
13:15 1023 30.21 852 25.16 26.7 80.1 32 8.9 48 0 0
13:20 1023 30.21 852 25.16 26.9 80.4 33 9.4 48.9 0 0
13:25 1022 30.18 852 25.16 27.2 80.9 31 8.7 47.7 0 0
13:30 1022 30.18 851 25.13 27.5 81.5 30 8.5 47.3 0 0
13:35 1022 30.18 851 25.13 27.7 81.8 29 8.3 46.9 0 0
13:40 1022 30.18 851 25.13 27.8 82.1 27 7.5 45.5 0 0
13:45 1022 30.18 851 25.13 27.7 81.9 26 7 44.6 0 0
13:50 1022 30.18 851 25.13 27.9 82.2 29 8.5 47.4 0 0
13:55 1022 30.18 851 25.13 28.1 82.6 23 5.5 41.9 0 0
14:00 1022 30.18 851 25.13 28.3 82.9 23 5.8 42.4 0 0
14:05 1022 30.18 851 25.13 28.4 83 23 5.4 41.7 0 0
14:10 1022 30.18 851 25.13 28.4 83.1 24 6.1 42.9 0 0
14:15 1022 30.18 851 25.13 28.6 83.4 23 5.7 42.3 0 0
14:20 1022 30.18 851 25.13 28.6 83.4 23 5.5 41.9 0 0
14:25 1022 30.18 851 25.13 28.6 83.4 21 4.2 39.5 0 0
14:30 1021 30.15 851 25.13 28.7 83.6 22 5 41.1 0 0
14:35 1021 30.15 851 25.13 28.8 83.9 24 6.4 43.6 0 0
14:40 1021 30.15 851 25.13 28.9 84 22 5.3 41.5 0 0
14:45 1021 30.15 851 25.13 28.6 83.6 23 5.5 42 0 0
14:50 1021 30.15 850 25.1 28.6 83.5 20 4.1 39.3 0 0
14:55 1021 30.15 850 25.1 28.5 83.3 24 6 42.8 0 0
15:00 1021 30.15 850 25.1 28.6 83.4 22 4.8 40.6 0 0
15:05 1021 30.15 850 25.1 28.6 83.4 22 4.8 40.7 0 0
15:10 1021 30.15 850 25.1 28.5 83.2 22 4.9 40.7 0 0
15:15 1021 30.15 850 25.1 28.4 83.2 25 6.9 44.3 0 0
15:20 1021 30.15 850 25.1 28.5 83.4 22 5.2 41.3 0 0
15:25 1021 30.15 850 25.1 28.5 83.2 20 3.8 38.8 0 0
15:30 1021 30.15 850 25.1 28.6 83.5 22 5 41 0 0
15:35 1021 30.15 850 25.1 28.4 83.2 21 4.4 39.9 0 0
15:40 1021 30.15 850 25.1 28.4 83.2 23 5.4 41.8 0 0
15:45 1021 30.15 850 25.1 28.5 83.4 23 5.6 42.1 0 0
15:50 1021 30.15 850 25.1 28.2 82.7 23 5.5 41.9 0 0
15:55 1021 30.15 850 25.1 28.2 82.8 22 5 41 0 0
16:00 1021 30.15 850 25.1 28.2 82.8 22 5 41 0 0
16:05 1021 30.15 850 25.1 28.5 83.3 20 3.4 38.2 0 0
16:10 1021 30.15 850 25.1 28.5 83.3 19 3.3 37.9 0 0
16:15 1021 30.15 850 25.1 28.7 83.6 22 4.9 40.8 0 0
16:20 1021 30.15 850 25.1 28.7 83.7 20 3.6 38.5 0 0
16:25 1021 30.15 850 25.1 28.7 83.6 21 4.6 40.3 0 0
16:30 1021 30.15 850 25.1 28.8 83.8 23 5.8 42.4 0 0
16:35 1021 30.15 850 25.1 29.1 84.3 22 5.3 41.6 0 0
16:40 1021 30.15 850 25.1 29.1 84.5 20 4.3 39.8 0 0
16:45 1021 30.15 850 25.1 29.1 84.3 19 3.4 38.1 0 0
16:50 1021 30.15 850 25.1 29.1 84.3 18 2.5 36.6 0 0
16:55 1020 30.12 850 25.1 29.1 84.4 17 1.6 35 0 0
17:00 1020 30.12 850 25.1 29.1 84.4 23 6.3 43.4 0 0
17:05 1020 30.12 850 25.1 29.3 84.7 20 4 39.3 0 0
17:10 1020 30.12 849 25.07 29.4 85 14 -0.1 31.8 0 0
17:15 1020 30.12 849 25.07 29.4 85 16 1.1 34 0 0
17:20 1020 30.12 849 25.07 29.7 85.4 17 2.4 36.4 0 0
17:25 1020 30.12 849 25.07 29.7 85.5 19 3.8 38.9 0 0
17:30 1020 30.12 849 25.07 29.7 85.4 17 2.7 36.9 0 0
17:35 1020 30.12 849 25.07 29.4 84.8 18 2.9 37.2 0 0
17:40 1020 30.12 849 25.07 29 84.3 19 3.2 37.7 0 0
17:45 1020 30.12 849 25.07 28.7 83.7 22 5.2 41.4 0 0
17:50 1020 30.12 849 25.07 28.5 83.4 24 6.3 43.4 0 0
17:55 1020 30.12 849 25.07 28.6 83.4 16 0.9 33.6 0 0
18:00 1020 30.12 849 25.07 29.2 84.5 22 5.7 42.2 0 0
18:05 1020 30.12 849 25.07 29.2 84.6 31 10.5 50.9 0 0
18:10 1020 30.12 849 25.07 28.7 83.6 30 9.8 49.6 0 0
18:15 1020 30.12 849 25.07 28.6 83.4 32 10.7 51.3 0 0
18:20 1020 30.12 849 25.07 27.8 82 27 7.3 45.2 0 0
18:25 1020 30.12 849 25.07 27.8 82 20 2.8 37.1 0 0
18:30 1020 30.12 849 25.07 28.4 83.2 17 1.7 35.1 0 0
18:35 1020 30.12 849 25.07 29.1 84.3 17 2.2 36 0 0
18:40 1020 30.12 849 25.07 29.2 84.5 23 6 42.7 0 0
18:45 1020 30.12 849 25.07 28.6 83.5 25 7 44.5 0 0
18:50 1020 30.12 849 25.07 27.8 82 24 5.7 42.2 0 0
18:55 1020 30.12 849 25.07 27.1 80.7 26 6 42.8 0 0
19:00 1020 30.12 849 25.07 26.3 79.3 28 6.5 43.7 0 0
19:05 1020 30.12 849 25.07 25.8 78.4 27 5.6 42 0 0
19:10 1020 30.12 849 25.07 25.6 78 27 5.3 41.5 0 0
19:15 1020 30.12 849 25.07 25.5 77.8 28 5.9 42.6 0 0
19:20 1020 30.12 849 25.07 25.2 77.4 30 6.6 44 0 0
19:25 1020 30.12 849 25.07 24.7 76.5 30 6.3 43.4 0 0
19:30 1020 30.12 849 25.07 24.4 75.9 33 7.2 45 0 0
19:35 1020 30.12 849 25.07 24 75.2 29 5.2 41.4 0 0
19:40 1020 30.12 849 25.07 24.3 75.7 28 4.9 40.9 0 0
19:45 1020 30.12 849 25.07 24.4 75.8 28 5 41 0 0
19:50 1020 30.12 849 25.07 24.1 75.4 31 6.2 43.2 0 0
19:55 1020 30.12 849 25.07 22.7 72.8 45 10.2 50.3 0 0
20:00 1020 30.12 849 25.07 19.7 67.4 53 9.9 49.9 0 0
20:05 1020 30.12 849 25.07 18.3 64.9 58 9.9 49.9 0 0
20:10 1020 30.12 849 25.07 17.5 63.5 56 8.8 47.8 0 0
20:15 1020 30.12 849 25.07 17.6 63.8 53 8.1 46.6 0 0
20:20 1020 30.12 849 25.07 17.6 63.6 54 8.2 46.8 0 0
20:25 1020 30.12 849 25.07 17.2 62.9 55 8 46.5 0 0
20:30 1020 30.12 850 25.1 17.2 63 50 6.9 44.4 0 0
20:35 1020 30.12 850 25.1 17.6 63.7 52 7.9 46.2 0 0
20:40 1020 30.12 850 25.1 17.4 63.2 53 7.7 45.9 0 0
20:45 1020 30.12 850 25.1 17.1 62.9 53 7.7 45.9 0 0
20:50 1021 30.15 850 25.1 17.2 63 48 6.1 43 0 0
20:55 1021 30.15 850 25.1 18.6 65.5 43 5.9 42.6 0 0
21:00 1021 30.15 850 25.1 18.7 65.6 47 7.3 45.1 0 0
21:05 1021 30.15 850 25.1 18 64.4 49 7.3 45.2 0 0
21:10 1021 30.15 850 25.1 17.6 63.7 51 7.4 45.3 0 0
21:15 1021 30.15 850 25.1 17.2 63 51 7 44.6 0 0
21:20 1021 30.15 850 25.1 16.9 62.5 54 7.6 45.6 0 0
21:25 1021 30.15 850 25.1 16.2 61.2 57 7.7 45.9 0 0
21:30 1021 30.15 850 25.1 15.8 60.4 56 7.1 44.7 0 0
21:35 1021 30.15 850 25.1 15.9 60.6 56 7.2 45 0 0
21:40 1021 30.15 851 25.13 15.8 60.4 55 6.9 44.5 0 0
21:45 1021 30.15 851 25.13 16.2 61.2 52 6.3 43.4 0 0
21:50 1022 30.18 851 25.13 16.8 62.3 52 7 44.5 0 0
21:55 1022 30.18 851 25.13 17.1 62.7 46 5.4 41.6 0 0
22:00 1022 30.18 851 25.13 17.7 63.9 48 6.8 44.2 0 0
22:05 1022 30.18 851 25.13 17.9 64.2 37 3.3 37.9 0 0
22:10 1022 30.18 851 25.13 19.1 66.4 44 6.6 43.8 0 0
22:15 1022 30.18 851 25.13 18.2 64.8 41 5 41.1 0 0
22:20 1022 30.18 851 25.13 18.3 64.9 47 7 44.6 0 0
22:25 1022 30.18 851 25.13 17.3 63.2 46 5.8 42.5 0 0
22:30 1022 30.18 851 25.13 17.2 63 44 4.9 40.8 0 0
22:35 1022 30.18 851 25.13 17.2 63 48 6.2 43.1 0 0
22:40 1022 30.18 851 25.13 17.1 62.8 45 5.3 41.5 0 0
22:45 1022 30.18 851 25.13 17.7 63.9 43 5.1 41.3 0 0
22:50 1022 30.18 851 25.13 17.5 63.6 46 6 42.8 0 0
22:55 1022 30.18 851 25.13 17.1 62.7 45 5.3 41.5 0 0
23:00 1022 30.18 851 25.13 17 62.6 46 5.5 42 0 0
23:05 1022 30.18 851 25.13 17.2 63 44 4.9 40.8 0 0
23:10 1022 30.18 851 25.13 17.7 63.8 42 4.8 40.6 0 0
23:15 1022 30.18 852 25.16 17.8 64 42 4.8 40.6 0 0
23:20 1022 30.18 852 25.16 17.8 64 43 5.3 41.6 0 0
23:25 1023 30.21 852 25.16 17.2 62.9 49 6.3 43.4 0 0
23:30 1023 30.21 852 25.16 16.6 61.8 47 5.4 41.8 0 0
23:35 1023 30.21 852 25.16 16.2 61.2 50 5.7 42.3 0 0
23:40 1023 30.21 852 25.16 15.9 60.7 53 6.4 43.6 0 0
23:45 1023 30.21 852 25.16 15.1 59.1 54 5.9 42.7 0 0
23:50 1023 30.21 852 25.16 14.9 58.9 55 6 42.9 0 0
23:55 1023 30.21 852 25.16 14.6 58.3 56 6.1 42.9 0 0
24:00 1023 30.21 852 25.16 14.5 58.1 55 5.8 42.4 0 0